Terminal Aerodrome Forecast
Issued by NWS Rapid City, SD

Home | Current Version | Previous Version | Text Only | Print | Product List | Glossary On
Versions: 1 2 3 4 5 6 7 8 9 10 11 12 13 14 15 16 17 18 19 20 21 22 23 24 25 26 27 28 29
000
FTUS43 KUNR 250935 AAA
TAFRAP
TAF AMD
KRAP 250935Z 2510/2606 30022G32KT P6SM BKN040
     FM251200 34025G35KT P6SM SCT050
     FM252300 35015KT P6SM SCT100=

USA.gov is the U.S. government's official web portal to all federal, state and local government web resources and services.